createdAt,value
2018-01-05T00:00:41.293Z,79.60
2018-01-05T00:06:09.474Z,79.60
2018-01-05T00:11:38.142Z,80.20
2018-01-05T00:17:08.411Z,80.70
2018-01-05T00:22:36.625Z,80.90
2018-01-05T00:28:04.897Z,81.50
2018-01-05T00:33:33.906Z,82.10
2018-01-05T00:39:02.113Z,82.10
2018-01-05T00:44:30.339Z,82.20
2018-01-05T00:49:58.580Z,82.40
2018-01-05T00:55:26.797Z,82.50
2018-01-05T01:00:55.035Z,82.70
2018-01-05T01:06:23.261Z,82.90
2018-01-05T01:11:53.177Z,83.00
2018-01-05T01:17:21.365Z,83.00
2018-01-05T01:23:00.453Z,83.10
2018-01-05T01:28:28.678Z,83.00
2018-01-05T01:33:56.876Z,83.10
2018-01-05T01:39:26.117Z,83.10
2018-01-05T01:44:55.077Z,83.10
2018-01-05T01:50:23.310Z,83.10
2018-01-05T01:55:52.293Z,83.20
2018-01-05T02:01:21.413Z,83.10
2018-01-05T02:06:49.618Z,83.00
2018-01-05T02:12:17.822Z,83.00
2018-01-05T02:17:50.050Z,82.70
2018-01-05T02:23:18.245Z,81.80
2018-01-05T02:28:46.460Z,81.20
2018-01-05T02:34:15.397Z,78.90
2018-01-05T02:39:44.336Z,78.60
2018-01-05T02:45:13.333Z,78.50
2018-01-05T02:50:41.570Z,78.50
2018-01-05T02:56:10.819Z,78.40
2018-01-05T03:01:39.034Z,78.50
2018-01-05T03:07:07.253Z,79.40
2018-01-05T03:12:35.464Z,79.10
2018-01-05T03:18:03.679Z,79.40
2018-01-05T03:23:31.874Z,79.70
2018-01-05T03:29:00.077Z,80.60
2018-01-05T03:34:28.314Z,80.40
2018-01-05T03:39:56.527Z,80.60
2018-01-05T03:45:24.719Z,80.90
2018-01-05T03:50:54.824Z,81.30
2018-01-05T03:56:23.029Z,81.30
2018-01-05T04:01:51.617Z,81.40
2018-01-05T04:07:20.114Z,81.50
2018-01-05T04:12:58.473Z,81.50
2018-01-05T04:18:26.733Z,81.60
2018-01-05T04:23:54.932Z,81.70
2018-01-05T04:29:23.164Z,81.70
2018-01-05T04:34:51.398Z,81.80
2018-01-05T04:40:19.921Z,82.00
2018-01-05T04:45:48.370Z,82.00
2018-01-05T04:51:17.568Z,82.20
2018-01-05T04:56:52.911Z,82.30
2018-01-05T05:02:21.143Z,82.30
2018-01-05T05:07:49.344Z,82.30
2018-01-05T05:13:26.182Z,82.10
2018-01-05T05:18:54.377Z,82.00
2018-01-05T05:24:22.570Z,82.00
2018-01-05T05:29:50.898Z,81.90
2018-01-05T05:35:19.169Z,81.70
2018-01-05T05:40:47.393Z,81.70
2018-01-05T05:46:15.607Z,81.70
2018-01-05T05:51:43.843Z,81.60
2018-01-05T05:57:12.041Z,81.60
2018-01-05T06:02:41.007Z,81.30
2018-01-05T06:08:09.980Z,81.30
2018-01-05T06:13:38.205Z,81.30
2018-01-05T06:19:10.844Z,81.40
2018-01-05T06:24:39.063Z,81.40
2018-01-05T06:30:07.270Z,81.40
2018-01-05T06:35:35.512Z,81.40
2018-01-05T06:41:03.707Z,81.50
2018-01-05T06:46:31.915Z,81.50
2018-01-05T06:52:00.125Z,81.50
2018-01-05T06:57:28.310Z,81.60
2018-01-05T07:02:58.213Z,81.30
2018-01-05T07:08:32.196Z,81.30
2018-01-05T07:14:02.350Z,81.00
2018-01-05T07:19:30.557Z,80.90
2018-01-05T07:24:59.528Z,80.20
2018-01-05T07:30:27.742Z,80.10
2018-01-05T07:35:55.929Z,79.80
2018-01-05T07:41:28.268Z,79.40
2018-01-05T07:46:56.479Z,78.60
2018-01-05T07:52:24.690Z,78.10
2018-01-05T07:57:52.908Z,78.40
2018-01-05T08:03:26.773Z,76.90
2018-01-05T08:09:00.186Z,76.40
2018-01-05T08:14:28.389Z,75.80
2018-01-05T08:19:57.749Z,75.40
2018-01-05T08:25:26.708Z,74.30
2018-01-05T08:30:55.886Z,74.30
2018-01-05T08:36:24.162Z,74.20
2018-01-05T08:41:53.136Z,72.40
2018-01-05T08:47:21.354Z,72.40
2018-01-05T08:52:49.553Z,72.10
2018-01-05T08:58:17.754Z,71.90
2018-01-05T09:03:46.733Z,71.30
2018-01-05T09:09:15.617Z,71.30
2018-01-05T09:14:44.328Z,71.20
2018-01-05T09:20:13.345Z,70.00
2018-01-05T09:25:42.008Z,70.00
2018-01-05T09:31:10.570Z,68.60
2018-01-05T09:36:38.851Z,67.30
2018-01-05T09:42:07.114Z,66.70
2018-01-05T09:47:35.305Z,64.90
2018-01-05T09:53:03.552Z,62.90
2018-01-05T09:58:31.797Z,61.60
2018-01-05T10:04:06.280Z,60.20
2018-01-05T10:09:34.554Z,59.30
2018-01-05T10:15:03.671Z,58.30
2018-01-05T10:20:31.886Z,58.20
2018-01-05T10:26:01.035Z,58.40
2018-01-05T10:31:29.280Z,57.80
2018-01-05T10:36:58.300Z,58.00
2018-01-05T10:42:26.580Z,57.70
2018-01-05T10:47:56.058Z,56.60
2018-01-05T10:53:27.936Z,56.90
2018-01-05T10:58:57.224Z,57.20
2018-01-05T11:04:37.619Z,57.20
2018-01-05T11:10:05.947Z,57.20
2018-01-05T11:15:34.171Z,57.60
2018-01-05T11:21:02.370Z,57.50
2018-01-05T11:26:33.785Z,57.40
2018-01-05T11:32:02.005Z,57.30
2018-01-05T11:37:31.113Z,57.30
2018-01-05T11:43:04.429Z,57.20
2018-01-05T11:48:34.138Z,57.20
2018-01-05T11:54:02.489Z,57.20
2018-01-05T11:59:30.721Z,57.00
2018-01-05T12:05:00.191Z,57.10
2018-01-05T12:10:28.410Z,57.10
2018-01-05T12:15:56.621Z,57.10
2018-01-05T12:21:24.856Z,57.50
2018-01-05T12:26:53.079Z,58.00
2018-01-05T12:32:23.121Z,58.00
2018-01-05T12:37:52.749Z,58.50
2018-01-05T12:43:21.270Z,58.40
2018-01-05T12:48:51.653Z,58.60
2018-01-05T12:54:19.991Z,58.60
2018-01-05T12:59:48.338Z,58.50
2018-01-05T13:05:16.566Z,58.60
2018-01-05T13:10:44.887Z,58.60
2018-01-05T13:16:13.334Z,58.60
2018-01-05T13:21:41.549Z,58.20
2018-01-05T13:27:12.988Z,58.30
2018-01-05T13:32:49.418Z,58.60
2018-01-05T13:38:18.428Z,58.70
2018-01-05T13:43:46.661Z,58.50
2018-01-05T13:49:14.891Z,58.70
2018-01-05T13:54:43.150Z,59.00
2018-01-05T14:00:11.436Z,59.20
2018-01-05T14:05:39.697Z,59.60
2018-01-05T14:11:08.026Z,59.80
2018-01-05T14:16:36.354Z,60.40
2018-01-05T14:22:07.301Z,61.10
2018-01-05T14:27:36.301Z,61.90
2018-01-05T14:33:04.739Z,61.90
2018-01-05T14:38:35.127Z,62.30
2018-01-05T14:44:03.496Z,62.70
2018-01-05T14:49:35.244Z,62.70
2018-01-05T14:55:03.462Z,62.90
2018-01-05T15:00:31.661Z,63.00
2018-01-05T15:05:59.892Z,63.60
2018-01-05T15:11:28.116Z,64.10
2018-01-05T15:16:57.378Z,64.80
2018-01-05T15:22:25.744Z,65.90
2018-01-05T15:28:12.800Z,67.10
2018-01-05T15:33:41.352Z,67.00
2018-01-05T15:39:10.545Z,67.70
2018-01-05T15:44:38.765Z,67.90
2018-01-05T15:50:11.771Z,68.50
2018-01-05T15:55:40.320Z,68.90
2018-01-05T16:01:09.598Z,69.20
2018-01-05T16:06:38.676Z,70.30
2018-01-05T16:12:06.878Z,70.30
2018-01-05T16:17:37.869Z,71.50
2018-01-05T16:23:14.023Z,71.50
2018-01-05T16:28:42.262Z,71.50
2018-01-05T16:34:12.424Z,71.70
2018-01-05T16:39:41.569Z,72.00
2018-01-05T16:45:09.818Z,72.10
2018-01-05T16:50:39.065Z,72.10
2018-01-05T16:56:08.052Z,72.10
2018-01-05T17:01:36.246Z,72.10
2018-01-05T17:07:04.826Z,72.30
2018-01-05T17:12:37.423Z,72.70
2018-01-05T17:18:05.637Z,72.90
2018-01-05T17:23:33.856Z,74.20
2018-01-05T17:29:06.316Z,74.50
2018-01-05T17:34:35.715Z,74.60
2018-01-05T17:40:04.818Z,74.60
2018-01-05T17:45:33.136Z,74.60
2018-01-05T17:51:06.739Z,74.70
2018-01-05T17:56:34.943Z,74.90
2018-01-05T18:02:04.106Z,75.10
2018-01-05T18:07:32.327Z,75.20
2018-01-05T18:13:00.540Z,75.30
2018-01-05T18:18:28.751Z,75.40
2018-01-05T18:23:56.952Z,75.40
2018-01-05T18:29:25.919Z,75.20
2018-01-05T18:34:58.264Z,75.20
2018-01-05T18:40:27.396Z,75.20
2018-01-05T18:45:55.609Z,75.30
2018-01-05T18:51:24.606Z,75.20
2018-01-05T18:56:54.116Z,75.10
2018-01-05T19:02:23.360Z,75.20
2018-01-05T19:07:51.767Z,74.90
2018-01-05T19:13:19.974Z,75.00
2018-01-05T19:18:49.242Z,74.60
2018-01-05T19:24:17.697Z,74.20
2018-01-05T19:29:45.912Z,72.80
2018-01-05T19:35:14.203Z,72.80
2018-01-05T19:40:42.509Z,72.50
2018-01-05T19:46:10.754Z,72.50
2018-01-05T19:51:39.004Z,72.30
2018-01-05T19:57:07.280Z,71.90
2018-01-05T20:02:36.275Z,71.40
2018-01-05T20:08:04.616Z,71.40
2018-01-05T20:13:33.074Z,71.20
2018-01-05T20:19:01.348Z,71.30
2018-01-05T20:24:29.629Z,72.20
2018-01-05T20:30:00.507Z,73.50
2018-01-05T20:35:29.124Z,74.90
2018-01-05T20:40:59.367Z,76.00
2018-01-05T20:46:27.919Z,76.00
2018-01-05T20:51:56.550Z,76.60
2018-01-05T20:57:24.859Z,76.60
2018-01-05T21:02:58.146Z,77.00
2018-01-05T21:08:29.460Z,77.00
2018-01-05T21:13:57.688Z,77.10
2018-01-05T21:19:29.572Z,77.10
2018-01-05T21:25:04.737Z,77.20
2018-01-05T21:30:37.097Z,77.20
2018-01-05T21:36:06.647Z,77.30
2018-01-05T21:41:36.897Z,77.40
2018-01-05T21:47:05.232Z,77.40
2018-01-05T21:52:36.398Z,77.30
2018-01-05T21:58:05.990Z,77.30
2018-01-05T22:03:34.178Z,77.20
2018-01-05T22:09:08.048Z,77.30
2018-01-05T22:14:36.271Z,77.20
2018-01-05T22:20:06.956Z,77.30
2018-01-05T22:25:35.261Z,77.30
2018-01-05T22:31:18.615Z,77.40
2018-01-05T22:36:48.374Z,77.30
2018-01-05T22:42:22.622Z,77.30
2018-01-05T22:47:51.667Z,77.60
2018-01-05T22:53:19.909Z,77.60
2018-01-05T22:58:48.094Z,77.70
2018-01-05T23:04:18.278Z,78.00
2018-01-05T23:09:47.723Z,78.40
2018-01-05T23:15:16.678Z,78.60
2018-01-05T23:20:44.920Z,78.60
2018-01-05T23:26:13.142Z,78.70
2018-01-05T23:31:41.328Z,79.00
2018-01-05T23:37:11.315Z,79.30
2018-01-05T23:42:39.517Z,79.30
2018-01-05T23:48:08.540Z,79.60
2018-01-05T23:53:37.926Z,79.80
2018-01-05T23:59:06.435Z,79.80
